sensor_id;sensor_type;location;lat;lon;timestamp;temperature;humidity
52849;DHT22;38714;53.180;5.812;2022-08-30T00:01:33;17.00;99.90
52849;DHT22;38714;53.180;5.812;2022-08-30T00:03:59;17.00;99.90
52849;DHT22;38714;53.180;5.812;2022-08-30T00:06:26;17.00;99.90
52849;DHT22;38714;53.180;5.812;2022-08-30T00:08:52;17.00;99.90
52849;DHT22;38714;53.180;5.812;2022-08-30T00:11:22;17.00;99.90
52849;DHT22;38714;53.180;5.812;2022-08-30T00:13:49;17.00;99.90
52849;DHT22;38714;53.180;5.812;2022-08-30T00:16:16;17.00;99.90
52849;DHT22;38714;53.180;5.812;2022-08-30T00:18:42;17.00;99.90
52849;DHT22;38714;53.180;5.812;2022-08-30T00:21:08;17.00;99.90
52849;DHT22;38714;53.180;5.812;2022-08-30T00:23:33;17.00;99.90
52849;DHT22;38714;53.180;5.812;2022-08-30T00:25:59;17.00;99.90
52849;DHT22;38714;53.180;5.812;2022-08-30T00:28:26;17.00;99.90
52849;DHT22;38714;53.180;5.812;2022-08-30T00:30:51;17.00;99.90
52849;DHT22;38714;53.180;5.812;2022-08-30T00:33:17;17.00;99.90
52849;DHT22;38714;53.180;5.812;2022-08-30T00:35:42;17.00;99.90
52849;DHT22;38714;53.180;5.812;2022-08-30T00:38:09;17.00;99.90
52849;DHT22;38714;53.180;5.812;2022-08-30T00:40:35;17.00;99.90
52849;DHT22;38714;53.180;5.812;2022-08-30T00:43:01;17.00;99.90
52849;DHT22;38714;53.180;5.812;2022-08-30T00:45:31;17.00;99.90
52849;DHT22;38714;53.180;5.812;2022-08-30T00:47:58;17.00;99.90
52849;DHT22;38714;53.180;5.812;2022-08-30T00:50:25;17.00;99.90
52849;DHT22;38714;53.180;5.812;2022-08-30T00:52:53;17.00;99.90
52849;DHT22;38714;53.180;5.812;2022-08-30T00:55:19;17.00;99.90
52849;DHT22;38714;53.180;5.812;2022-08-30T00:57:45;17.00;99.90
52849;DHT22;38714;53.180;5.812;2022-08-30T01:00:12;17.00;99.90
52849;DHT22;38714;53.180;5.812;2022-08-30T01:02:38;17.00;99.90
52849;DHT22;38714;53.180;5.812;2022-08-30T01:05:05;16.90;99.90
52849;DHT22;38714;53.180;5.812;2022-08-30T01:07:31;17.00;99.90
52849;DHT22;38714;53.180;5.812;2022-08-30T01:09:57;16.90;99.90
52849;DHT22;38714;53.180;5.812;2022-08-30T01:12:23;16.90;99.90
52849;DHT22;38714;53.180;5.812;2022-08-30T01:14:48;16.90;99.90
52849;DHT22;38714;53.180;5.812;2022-08-30T01:17:15;16.90;99.90
52849;DHT22;38714;53.180;5.812;2022-08-30T01:19:42;16.90;99.90
52849;DHT22;38714;53.180;5.812;2022-08-30T01:22:16;16.90;99.90
52849;DHT22;38714;53.180;5.812;2022-08-30T01:24:44;16.90;99.90
52849;DHT22;38714;53.180;5.812;2022-08-30T01:27:15;16.80;99.90
52849;DHT22;38714;53.180;5.812;2022-08-30T01:29:40;16.80;99.90
52849;DHT22;38714;53.180;5.812;2022-08-30T01:32:16;16.80;99.90
52849;DHT22;38714;53.180;5.812;2022-08-30T01:34:43;16.80;99.90
52849;DHT22;38714;53.180;5.812;2022-08-30T01:37:34;16.80;99.90
52849;DHT22;38714;53.180;5.812;2022-08-30T01:39:58;16.80;99.90
52849;DHT22;38714;53.180;5.812;2022-08-30T01:42:24;16.80;99.90
52849;DHT22;38714;53.180;5.812;2022-08-30T01:44:50;16.70;99.90
52849;DHT22;38714;53.180;5.812;2022-08-30T01:47:16;16.70;99.90
52849;DHT22;38714;53.180;5.812;2022-08-30T01:49:43;16.70;99.90
52849;DHT22;38714;53.180;5.812;2022-08-30T01:52:08;16.70;99.90
52849;DHT22;38714;53.180;5.812;2022-08-30T01:54:34;16.70;99.90
52849;DHT22;38714;53.180;5.812;2022-08-30T01:57:01;16.70;99.90
52849;DHT22;38714;53.180;5.812;2022-08-30T01:59:26;16.70;99.90
52849;DHT22;38714;53.180;5.812;2022-08-30T02:01:52;16.60;99.90
52849;DHT22;38714;53.180;5.812;2022-08-30T02:04:18;16.60;99.90
52849;DHT22;38714;53.180;5.812;2022-08-30T02:06:43;16.60;99.90
52849;DHT22;38714;53.180;5.812;2022-08-30T02:09:10;16.50;99.90
52849;DHT22;38714;53.180;5.812;2022-08-30T02:11:35;16.50;99.90
52849;DHT22;38714;53.180;5.812;2022-08-30T02:14:01;16.50;99.90
52849;DHT22;38714;53.180;5.812;2022-08-30T02:16:27;16.50;99.90
52849;DHT22;38714;53.180;5.812;2022-08-30T02:18:54;16.50;99.90
52849;DHT22;38714;53.180;5.812;2022-08-30T02:21:21;16.50;99.90
52849;DHT22;38714;53.180;5.812;2022-08-30T02:23:47;16.50;99.90
52849;DHT22;38714;53.180;5.812;2022-08-30T02:26:13;16.50;99.90
52849;DHT22;38714;53.180;5.812;2022-08-30T02:28:39;16.40;99.90
52849;DHT22;38714;53.180;5.812;2022-08-30T02:31:04;16.50;99.90
52849;DHT22;38714;53.180;5.812;2022-08-30T02:33:30;16.40;99.90
52849;DHT22;38714;53.180;5.812;2022-08-30T02:35:56;16.40;99.90
52849;DHT22;38714;53.180;5.812;2022-08-30T02:38:21;16.30;99.90
52849;DHT22;38714;53.180;5.812;2022-08-30T02:40:48;16.30;99.90
52849;DHT22;38714;53.180;5.812;2022-08-30T02:43:14;16.30;99.90
52849;DHT22;38714;53.180;5.812;2022-08-30T02:45:39;16.30;99.90
52849;DHT22;38714;53.180;5.812;2022-08-30T02:48:05;16.30;99.90
52849;DHT22;38714;53.180;5.812;2022-08-30T02:50:30;16.30;99.90
52849;DHT22;38714;53.180;5.812;2022-08-30T02:52:56;16.20;99.90
52849;DHT22;38714;53.180;5.812;2022-08-30T02:55:21;16.20;99.90
52849;DHT22;38714;53.180;5.812;2022-08-30T02:57:47;16.20;99.90
52849;DHT22;38714;53.180;5.812;2022-08-30T03:00:14;16.20;99.90
52849;DHT22;38714;53.180;5.812;2022-08-30T03:02:40;16.20;99.90
52849;DHT22;38714;53.180;5.812;2022-08-30T03:05:06;16.20;99.90
52849;DHT22;38714;53.180;5.812;2022-08-30T03:07:32;16.20;99.90
52849;DHT22;38714;53.180;5.812;2022-08-30T03:09:58;16.20;99.90
52849;DHT22;38714;53.180;5.812;2022-08-30T03:12:24;16.10;99.90
52849;DHT22;38714;53.180;5.812;2022-08-30T03:14:49;16.10;99.90
52849;DHT22;38714;53.180;5.812;2022-08-30T03:17:15;16.10;99.90
52849;DHT22;38714;53.180;5.812;2022-08-30T03:19:41;16.10;99.90
52849;DHT22;38714;53.180;5.812;2022-08-30T03:22:06;16.00;99.90
52849;DHT22;38714;53.180;5.812;2022-08-30T03:24:32;16.00;99.90
52849;DHT22;38714;53.180;5.812;2022-08-30T03:26:59;16.00;99.90
52849;DHT22;38714;53.180;5.812;2022-08-30T03:29:24;16.00;99.90
52849;DHT22;38714;53.180;5.812;2022-08-30T03:31:50;15.90;99.90
52849;DHT22;38714;53.180;5.812;2022-08-30T03:34:17;15.90;99.90
52849;DHT22;38714;53.180;5.812;2022-08-30T03:36:42;15.90;99.90
52849;DHT22;38714;53.180;5.812;2022-08-30T03:39:09;15.90;99.90
52849;DHT22;38714;53.180;5.812;2022-08-30T03:41:34;15.80;99.90
52849;DHT22;38714;53.180;5.812;2022-08-30T03:44:00;15.80;99.90
52849;DHT22;38714;53.180;5.812;2022-08-30T03:46:26;15.70;99.90
52849;DHT22;38714;53.180;5.812;2022-08-30T03:48:51;15.70;99.90
52849;DHT22;38714;53.180;5.812;2022-08-30T03:51:20;15.70;99.90
52849;DHT22;38714;53.180;5.812;2022-08-30T03:53:46;15.60;99.90
52849;DHT22;38714;53.180;5.812;2022-08-30T03:56:11;15.60;99.90
52849;DHT22;38714;53.180;5.812;2022-08-30T03:58:37;15.60;99.90
52849;DHT22;38714;53.180;5.812;2022-08-30T04:01:02;15.50;99.90
52849;DHT22;38714;53.180;5.812;2022-08-30T04:03:28;15.40;99.90
52849;DHT22;38714;53.180;5.812;2022-08-30T04:05:53;15.50;99.90
52849;DHT22;38714;53.180;5.812;2022-08-30T04:08:19;15.50;99.90
52849;DHT22;38714;53.180;5.812;2022-08-30T04:10:45;15.40;99.90
52849;DHT22;38714;53.180;5.812;2022-08-30T04:13:12;15.40;99.90
52849;DHT22;38714;53.180;5.812;2022-08-30T04:15:40;15.40;99.90
52849;DHT22;38714;53.180;5.812;2022-08-30T04:18:06;15.40;99.90
52849;DHT22;38714;53.180;5.812;2022-08-30T04:20:32;15.40;99.90
52849;DHT22;38714;53.180;5.812;2022-08-30T04:22:58;15.40;99.90
52849;DHT22;38714;53.180;5.812;2022-08-30T04:25:24;15.30;99.90
52849;DHT22;38714;53.180;5.812;2022-08-30T04:27:49;15.30;99.90
52849;DHT22;38714;53.180;5.812;2022-08-30T04:30:17;15.30;99.90
52849;DHT22;38714;53.180;5.812;2022-08-30T04:32:43;15.30;99.90
52849;DHT22;38714;53.180;5.812;2022-08-30T04:35:09;15.30;99.90
52849;DHT22;38714;53.180;5.812;2022-08-30T04:37:35;15.30;99.90
52849;DHT22;38714;53.180;5.812;2022-08-30T04:40:01;15.30;99.90
52849;DHT22;38714;53.180;5.812;2022-08-30T04:42:27;15.20;99.90
52849;DHT22;38714;53.180;5.812;2022-08-30T04:44:54;15.20;99.90
52849;DHT22;38714;53.180;5.812;2022-08-30T04:47:19;15.20;99.90
52849;DHT22;38714;53.180;5.812;2022-08-30T04:49:45;15.20;99.90
52849;DHT22;38714;53.180;5.812;2022-08-30T04:52:10;15.20;99.90
52849;DHT22;38714;53.180;5.812;2022-08-30T04:54:36;15.20;99.90
52849;DHT22;38714;53.180;5.812;2022-08-30T04:57:01;15.20;99.90
52849;DHT22;38714;53.180;5.812;2022-08-30T04:59:27;15.20;99.90
52849;DHT22;38714;53.180;5.812;2022-08-30T05:01:53;15.20;99.90
52849;DHT22;38714;53.180;5.812;2022-08-30T05:04:18;15.10;99.90
52849;DHT22;38714;53.180;5.812;2022-08-30T05:06:43;15.10;99.90
52849;DHT22;38714;53.180;5.812;2022-08-30T05:09:09;15.00;99.90
52849;DHT22;38714;53.180;5.812;2022-08-30T05:11:35;15.00;99.90
52849;DHT22;38714;53.180;5.812;2022-08-30T05:14:03;15.00;99.90
52849;DHT22;38714;53.180;5.812;2022-08-30T05:16:28;15.00;99.90
52849;DHT22;38714;53.180;5.812;2022-08-30T05:18:54;15.00;99.90
52849;DHT22;38714;53.180;5.812;2022-08-30T05:21:24;15.00;99.90
52849;DHT22;38714;53.180;5.812;2022-08-30T05:23:51;15.00;99.90
52849;DHT22;38714;53.180;5.812;2022-08-30T05:26:19;15.00;99.90
52849;DHT22;38714;53.180;5.812;2022-08-30T05:28:45;15.00;99.90
52849;DHT22;38714;53.180;5.812;2022-08-30T05:31:11;15.10;99.90
52849;DHT22;38714;53.180;5.812;2022-08-30T05:33:37;15.10;99.90
52849;DHT22;38714;53.180;5.812;2022-08-30T05:36:05;15.10;99.90
52849;DHT22;38714;53.180;5.812;2022-08-30T05:38:30;15.10;99.90
52849;DHT22;38714;53.180;5.812;2022-08-30T05:40:56;15.10;99.90
52849;DHT22;38714;53.180;5.812;2022-08-30T05:43:21;15.10;99.90
52849;DHT22;38714;53.180;5.812;2022-08-30T05:45:47;15.20;99.90
52849;DHT22;38714;53.180;5.812;2022-08-30T05:48:12;15.20;99.90
52849;DHT22;38714;53.180;5.812;2022-08-30T05:50:38;15.20;99.90
52849;DHT22;38714;53.180;5.812;2022-08-30T05:53:03;15.30;99.90
52849;DHT22;38714;53.180;5.812;2022-08-30T05:55:28;15.30;99.90
52849;DHT22;38714;53.180;5.812;2022-08-30T05:57:55;15.40;99.90
52849;DHT22;38714;53.180;5.812;2022-08-30T06:00:20;15.40;99.90
52849;DHT22;38714;53.180;5.812;2022-08-30T06:02:46;15.40;99.90
52849;DHT22;38714;53.180;5.812;2022-08-30T06:05:11;15.50;99.90
52849;DHT22;38714;53.180;5.812;2022-08-30T06:07:37;15.50;99.90
52849;DHT22;38714;53.180;5.812;2022-08-30T06:10:03;15.50;99.90
52849;DHT22;38714;53.180;5.812;2022-08-30T06:12:29;15.50;99.90
52849;DHT22;38714;53.180;5.812;2022-08-30T06:14:54;15.60;99.90
52849;DHT22;38714;53.180;5.812;2022-08-30T06:17:20;15.60;99.90
52849;DHT22;38714;53.180;5.812;2022-08-30T06:19:45;15.60;99.90
52849;DHT22;38714;53.180;5.812;2022-08-30T06:22:11;15.60;99.90
52849;DHT22;38714;53.180;5.812;2022-08-30T06:24:37;15.60;99.90
52849;DHT22;38714;53.180;5.812;2022-08-30T06:27:02;15.70;99.90
52849;DHT22;38714;53.180;5.812;2022-08-30T06:29:28;15.70;99.90
52849;DHT22;38714;53.180;5.812;2022-08-30T06:31:55;15.70;99.90
52849;DHT22;38714;53.180;5.812;2022-08-30T06:34:21;15.70;99.90
52849;DHT22;38714;53.180;5.812;2022-08-30T06:36:46;15.80;99.90
52849;DHT22;38714;53.180;5.812;2022-08-30T06:39:12;15.80;99.90
52849;DHT22;38714;53.180;5.812;2022-08-30T06:41:38;15.80;99.90
52849;DHT22;38714;53.180;5.812;2022-08-30T06:44:04;15.80;99.90
52849;DHT22;38714;53.180;5.812;2022-08-30T06:46:31;15.90;99.90
52849;DHT22;38714;53.180;5.812;2022-08-30T06:48:57;15.90;99.90
52849;DHT22;38714;53.180;5.812;2022-08-30T06:51:25;15.90;99.90
52849;DHT22;38714;53.180;5.812;2022-08-30T06:53:51;16.00;99.90
52849;DHT22;38714;53.180;5.812;2022-08-30T06:56:17;16.00;99.90
52849;DHT22;38714;53.180;5.812;2022-08-30T06:58:43;16.00;99.90
52849;DHT22;38714;53.180;5.812;2022-08-30T07:01:12;16.00;99.90
52849;DHT22;38714;53.180;5.812;2022-08-30T07:03:39;16.10;99.90
52849;DHT22;38714;53.180;5.812;2022-08-30T07:06:05;16.10;99.90
52849;DHT22;38714;53.180;5.812;2022-08-30T07:08:31;16.20;99.90
52849;DHT22;38714;53.180;5.812;2022-08-30T07:10:56;16.20;99.90
52849;DHT22;38714;53.180;5.812;2022-08-30T07:13:22;16.30;99.90
52849;DHT22;38714;53.180;5.812;2022-08-30T07:15:48;16.30;99.90
52849;DHT22;38714;53.180;5.812;2022-08-30T07:18:14;16.30;99.90
52849;DHT22;38714;53.180;5.812;2022-08-30T07:21:00;16.30;99.90
52849;DHT22;38714;53.180;5.812;2022-08-30T07:23:29;16.40;99.90
52849;DHT22;38714;53.180;5.812;2022-08-30T07:25:54;16.50;99.90
52849;DHT22;38714;53.180;5.812;2022-08-30T07:28:20;16.50;99.90
52849;DHT22;38714;53.180;5.812;2022-08-30T07:30:45;16.50;99.90
52849;DHT22;38714;53.180;5.812;2022-08-30T07:33:11;16.50;99.90
52849;DHT22;38714;53.180;5.812;2022-08-30T07:35:36;16.70;99.90
52849;DHT22;38714;53.180;5.812;2022-08-30T07:38:02;16.60;99.90
52849;DHT22;38714;53.180;5.812;2022-08-30T07:40:27;16.70;99.90
52849;DHT22;38714;53.180;5.812;2022-08-30T07:42:53;16.80;99.90
52849;DHT22;38714;53.180;5.812;2022-08-30T07:45:18;16.80;99.90
52849;DHT22;38714;53.180;5.812;2022-08-30T07:47:44;16.80;99.90
52849;DHT22;38714;53.180;5.812;2022-08-30T07:50:09;16.90;99.90
52849;DHT22;38714;53.180;5.812;2022-08-30T07:52:35;16.90;99.90
52849;DHT22;38714;53.180;5.812;2022-08-30T07:55:01;16.90;99.90
52849;DHT22;38714;53.180;5.812;2022-08-30T07:57:26;17.00;99.90
52849;DHT22;38714;53.180;5.812;2022-08-30T07:59:53;17.10;99.90
52849;DHT22;38714;53.180;5.812;2022-08-30T08:02:18;17.10;99.90
52849;DHT22;38714;53.180;5.812;2022-08-30T08:04:44;17.10;99.90
52849;DHT22;38714;53.180;5.812;2022-08-30T08:07:09;17.20;99.90
52849;DHT22;38714;53.180;5.812;2022-08-30T08:09:36;17.20;99.90
52849;DHT22;38714;53.180;5.812;2022-08-30T08:12:05;17.20;99.90
52849;DHT22;38714;53.180;5.812;2022-08-30T08:14:31;17.30;99.90
52849;DHT22;38714;53.180;5.812;2022-08-30T08:16:57;17.30;99.90
52849;DHT22;38714;53.180;5.812;2022-08-30T08:19:22;17.30;99.90
52849;DHT22;38714;53.180;5.812;2022-08-30T08:21:47;17.40;99.90
52849;DHT22;38714;53.180;5.812;2022-08-30T08:24:13;17.40;99.90
52849;DHT22;38714;53.180;5.812;2022-08-30T08:26:39;17.50;99.90
52849;DHT22;38714;53.180;5.812;2022-08-30T08:29:05;17.60;99.90
52849;DHT22;38714;53.180;5.812;2022-08-30T08:31:31;17.60;99.90
52849;DHT22;38714;53.180;5.812;2022-08-30T08:33:57;17.60;99.90
52849;DHT22;38714;53.180;5.812;2022-08-30T08:36:24;17.60;99.90
52849;DHT22;38714;53.180;5.812;2022-08-30T08:38:50;17.70;99.90
52849;DHT22;38714;53.180;5.812;2022-08-30T08:43:41;17.70;99.90
52849;DHT22;38714;53.180;5.812;2022-08-30T08:46:12;17.80;99.90
52849;DHT22;38714;53.180;5.812;2022-08-30T08:48:41;17.80;99.90
52849;DHT22;38714;53.180;5.812;2022-08-30T08:51:11;17.80;99.90
52849;DHT22;38714;53.180;5.812;2022-08-30T08:56:45;17.90;99.90
52849;DHT22;38714;53.180;5.812;2022-08-30T08:59:10;17.90;99.90
52849;DHT22;38714;53.180;5.812;2022-08-30T09:01:36;17.90;99.90
52849;DHT22;38714;53.180;5.812;2022-08-30T09:04:11;17.90;99.90
52849;DHT22;38714;53.180;5.812;2022-08-30T09:09:02;18.00;99.90
52849;DHT22;38714;53.180;5.812;2022-08-30T09:11:29;18.00;99.90
52849;DHT22;38714;53.180;5.812;2022-08-30T09:13:56;18.10;99.90
52849;DHT22;38714;53.180;5.812;2022-08-30T09:19:07;18.20;99.90
52849;DHT22;38714;53.180;5.812;2022-08-30T09:21:32;18.20;99.90
52849;DHT22;38714;53.180;5.812;2022-08-30T09:23:58;18.20;99.90
52849;DHT22;38714;53.180;5.812;2022-08-30T09:26:29;18.10;99.90
52849;DHT22;38714;53.180;5.812;2022-08-30T09:28:55;18.10;99.90
52849;DHT22;38714;53.180;5.812;2022-08-30T09:31:22;18.10;99.90
52849;DHT22;38714;53.180;5.812;2022-08-30T09:33:58;18.20;99.90
52849;DHT22;38714;53.180;5.812;2022-08-30T09:36:26;18.30;99.90
52849;DHT22;38714;53.180;5.812;2022-08-30T09:38:56;18.30;99.90
52849;DHT22;38714;53.180;5.812;2022-08-30T09:41:33;18.40;99.90
52849;DHT22;38714;53.180;5.812;2022-08-30T09:44:05;18.40;99.90
52849;DHT22;38714;53.180;5.812;2022-08-30T09:46:30;18.40;99.90
52849;DHT22;38714;53.180;5.812;2022-08-30T09:48:56;18.50;99.90
52849;DHT22;38714;53.180;5.812;2022-08-30T09:56:59;18.70;99.90
52849;DHT22;38714;53.180;5.812;2022-08-30T09:59:04;18.80;99.90
52849;DHT22;38714;53.180;5.812;2022-08-30T10:04:12;18.80;99.90
52849;DHT22;38714;53.180;5.812;2022-08-30T10:06:51;18.80;99.90
52849;DHT22;38714;53.180;5.812;2022-08-30T10:09:22;18.80;99.90
52849;DHT22;38714;53.180;5.812;2022-08-30T10:14:55;18.80;99.90
52849;DHT22;38714;53.180;5.812;2022-08-30T10:22:39;18.90;99.90
52849;DHT22;38714;53.180;5.812;2022-08-30T10:25:10;18.90;99.90
52849;DHT22;38714;53.180;5.812;2022-08-30T10:27:39;18.90;99.90
52849;DHT22;38714;53.180;5.812;2022-08-30T10:30:10;18.90;99.90
52849;DHT22;38714;53.180;5.812;2022-08-30T10:35:05;18.90;99.90
52849;DHT22;38714;53.180;5.812;2022-08-30T10:37:31;19.00;99.90
52849;DHT22;38714;53.180;5.812;2022-08-30T10:40:05;19.00;99.90
52849;DHT22;38714;53.180;5.812;2022-08-30T10:42:52;19.10;99.90
52849;DHT22;38714;53.180;5.812;2022-08-30T10:45:18;19.10;99.90
52849;DHT22;38714;53.180;5.812;2022-08-30T10:50:17;19.10;99.90
52849;DHT22;38714;53.180;5.812;2022-08-30T10:55:23;19.10;99.90
52849;DHT22;38714;53.180;5.812;2022-08-30T10:57:49;19.10;99.90
52849;DHT22;38714;53.180;5.812;2022-08-30T11:00:49;19.10;99.90
52849;DHT22;38714;53.180;5.812;2022-08-30T11:05:57;19.10;99.90
52849;DHT22;38714;53.180;5.812;2022-08-30T11:13:27;19.10;99.90
52849;DHT22;38714;53.180;5.812;2022-08-30T11:16:02;19.10;99.90
52849;DHT22;38714;53.180;5.812;2022-08-30T11:18:30;19.20;99.90
52849;DHT22;38714;53.180;5.812;2022-08-30T11:23:41;19.30;99.90
52849;DHT22;38714;53.180;5.812;2022-08-30T11:29:05;19.30;99.90
52849;DHT22;38714;53.180;5.812;2022-08-30T11:31:33;19.30;99.90
52849;DHT22;38714;53.180;5.812;2022-08-30T11:34:00;19.30;99.90
52849;DHT22;38714;53.180;5.812;2022-08-30T11:46:46;19.40;99.90
52849;DHT22;38714;53.180;5.812;2022-08-30T11:59:23;19.40;99.90
52849;DHT22;38714;53.180;5.812;2022-08-30T12:01:50;19.40;99.80
52849;DHT22;38714;53.180;5.812;2022-08-30T12:06:42;19.40;99.90
52849;DHT22;38714;53.180;5.812;2022-08-30T12:17:02;19.50;99.90
52849;DHT22;38714;53.180;5.812;2022-08-30T12:19:53;19.60;99.90
52849;DHT22;38714;53.180;5.812;2022-08-30T12:22:20;19.60;99.90
52849;DHT22;38714;53.180;5.812;2022-08-30T12:24:47;19.70;99.90
52849;DHT22;38714;53.180;5.812;2022-08-30T12:27:25;19.70;99.90
52849;DHT22;38714;53.180;5.812;2022-08-30T12:29:55;19.70;99.90
52849;DHT22;38714;53.180;5.812;2022-08-30T12:32:20;19.70;99.90
52849;DHT22;38714;53.180;5.812;2022-08-30T12:34:51;19.70;99.90
52849;DHT22;38714;53.180;5.812;2022-08-30T12:37:19;19.70;99.90
52849;DHT22;38714;53.180;5.812;2022-08-30T12:39:45;19.80;99.90
52849;DHT22;38714;53.180;5.812;2022-08-30T12:44:37;19.80;99.90
52849;DHT22;38714;53.180;5.812;2022-08-30T12:47:03;19.80;99.90
52849;DHT22;38714;53.180;5.812;2022-08-30T12:49:30;19.80;99.90
52849;DHT22;38714;53.180;5.812;2022-08-30T12:52:13;19.80;99.90
52849;DHT22;38714;53.180;5.812;2022-08-30T12:54:40;19.90;99.90
52849;DHT22;38714;53.180;5.812;2022-08-30T12:57:05;19.90;99.90
52849;DHT22;38714;53.180;5.812;2022-08-30T13:04:41;19.80;99.90
52849;DHT22;38714;53.180;5.812;2022-08-30T13:07:07;19.90;99.90
52849;DHT22;38714;53.180;5.812;2022-08-30T13:09:34;19.90;99.90
52849;DHT22;38714;53.180;5.812;2022-08-30T13:12:00;19.90;99.90
52849;DHT22;38714;53.180;5.812;2022-08-30T13:14:39;19.90;99.90
52849;DHT22;38714;53.180;5.812;2022-08-30T13:17:07;19.90;99.90
52849;DHT22;38714;53.180;5.812;2022-08-30T13:19:40;20.00;99.90
52849;DHT22;38714;53.180;5.812;2022-08-30T13:22:22;20.00;99.90
52849;DHT22;38714;53.180;5.812;2022-08-30T13:24:49;20.00;99.90
52849;DHT22;38714;53.180;5.812;2022-08-30T13:27:14;20.00;99.90
52849;DHT22;38714;53.180;5.812;2022-08-30T13:29:40;20.00;99.90
52849;DHT22;38714;53.180;5.812;2022-08-30T13:32:05;20.00;99.90
52849;DHT22;38714;53.180;5.812;2022-08-30T13:34:31;20.00;99.90
52849;DHT22;38714;53.180;5.812;2022-08-30T13:36:59;20.00;99.90
52849;DHT22;38714;53.180;5.812;2022-08-30T13:39:25;20.00;99.90
52849;DHT22;38714;53.180;5.812;2022-08-30T13:41:51;20.00;99.90
52849;DHT22;38714;53.180;5.812;2022-08-30T13:44:16;20.00;99.90
52849;DHT22;38714;53.180;5.812;2022-08-30T13:46:46;20.00;99.90
52849;DHT22;38714;53.180;5.812;2022-08-30T13:49:16;20.00;99.90
52849;DHT22;38714;53.180;5.812;2022-08-30T13:51:43;20.00;99.90
52849;DHT22;38714;53.180;5.812;2022-08-30T13:54:08;20.00;99.90
52849;DHT22;38714;53.180;5.812;2022-08-30T13:56:34;20.00;99.90
52849;DHT22;38714;53.180;5.812;2022-08-30T13:58:59;20.00;99.90
52849;DHT22;38714;53.180;5.812;2022-08-30T14:01:25;20.00;99.90
52849;DHT22;38714;53.180;5.812;2022-08-30T14:03:51;20.10;99.90
52849;DHT22;38714;53.180;5.812;2022-08-30T14:06:16;20.10;99.90
52849;DHT22;38714;53.180;5.812;2022-08-30T14:08:41;20.20;99.90
52849;DHT22;38714;53.180;5.812;2022-08-30T14:11:07;20.20;99.90
52849;DHT22;38714;53.180;5.812;2022-08-30T14:13:34;20.20;99.90
52849;DHT22;38714;53.180;5.812;2022-08-30T14:16:00;20.20;99.90
52849;DHT22;38714;53.180;5.812;2022-08-30T14:18:27;20.20;99.90
52849;DHT22;38714;53.180;5.812;2022-08-30T14:20:52;20.20;99.90
52849;DHT22;38714;53.180;5.812;2022-08-30T14:23:18;20.20;99.90
52849;DHT22;38714;53.180;5.812;2022-08-30T14:25:43;20.20;99.90
52849;DHT22;38714;53.180;5.812;2022-08-30T14:28:09;20.20;99.90
52849;DHT22;38714;53.180;5.812;2022-08-30T14:30:34;20.20;99.90
52849;DHT22;38714;53.180;5.812;2022-08-30T14:33:00;20.20;99.90
52849;DHT22;38714;53.180;5.812;2022-08-30T14:35:25;20.20;99.90
52849;DHT22;38714;53.180;5.812;2022-08-30T14:37:51;20.20;99.90
52849;DHT22;38714;53.180;5.812;2022-08-30T14:40:16;20.20;99.90
52849;DHT22;38714;53.180;5.812;2022-08-30T14:42:42;20.20;99.90
52849;DHT22;38714;53.180;5.812;2022-08-30T14:45:08;20.20;99.90
52849;DHT22;38714;53.180;5.812;2022-08-30T14:47:33;20.20;99.90
52849;DHT22;38714;53.180;5.812;2022-08-30T14:49:59;20.20;99.90
52849;DHT22;38714;53.180;5.812;2022-08-30T14:52:26;20.20;99.90
52849;DHT22;38714;53.180;5.812;2022-08-30T14:54:52;20.20;99.90
52849;DHT22;38714;53.180;5.812;2022-08-30T14:57:17;20.20;99.90
52849;DHT22;38714;53.180;5.812;2022-08-30T14:59:43;20.20;99.90
52849;DHT22;38714;53.180;5.812;2022-08-30T15:02:08;20.20;99.90
52849;DHT22;38714;53.180;5.812;2022-08-30T15:04:34;20.20;99.90
52849;DHT22;38714;53.180;5.812;2022-08-30T15:06:59;20.20;99.90
52849;DHT22;38714;53.180;5.812;2022-08-30T15:09:25;20.10;99.90
52849;DHT22;38714;53.180;5.812;2022-08-30T15:11:55;20.20;99.90
52849;DHT22;38714;53.180;5.812;2022-08-30T15:14:21;20.20;99.90
52849;DHT22;38714;53.180;5.812;2022-08-30T15:16:47;20.20;99.90
52849;DHT22;38714;53.180;5.812;2022-08-30T15:19:12;20.20;99.90
52849;DHT22;38714;53.180;5.812;2022-08-30T15:21:39;20.20;99.90
52849;DHT22;38714;53.180;5.812;2022-08-30T15:24:06;20.20;99.90
52849;DHT22;38714;53.180;5.812;2022-08-30T15:26:33;20.20;99.90
52849;DHT22;38714;53.180;5.812;2022-08-30T15:28:58;20.20;99.90
52849;DHT22;38714;53.180;5.812;2022-08-30T15:31:25;20.20;99.90
52849;DHT22;38714;53.180;5.812;2022-08-30T15:33:52;20.20;99.90
52849;DHT22;38714;53.180;5.812;2022-08-30T15:36:18;20.10;99.90
52849;DHT22;38714;53.180;5.812;2022-08-30T15:38:43;20.10;99.90
52849;DHT22;38714;53.180;5.812;2022-08-30T15:41:09;20.10;99.90
52849;DHT22;38714;53.180;5.812;2022-08-30T15:43:36;20.10;99.90
52849;DHT22;38714;53.180;5.812;2022-08-30T15:46:19;20.10;99.90
52849;DHT22;38714;53.180;5.812;2022-08-30T15:48:47;20.10;99.90
52849;DHT22;38714;53.180;5.812;2022-08-30T15:51:13;20.10;99.90
52849;DHT22;38714;53.180;5.812;2022-08-30T15:53:38;20.20;99.90
52849;DHT22;38714;53.180;5.812;2022-08-30T15:56:04;20.10;99.90
52849;DHT22;38714;53.180;5.812;2022-08-30T15:58:30;20.10;99.90
52849;DHT22;38714;53.180;5.812;2022-08-30T16:00:55;20.10;99.90
52849;DHT22;38714;53.180;5.812;2022-08-30T16:03:21;20.20;99.90
52849;DHT22;38714;53.180;5.812;2022-08-30T16:05:49;20.10;99.90
52849;DHT22;38714;53.180;5.812;2022-08-30T16:08:15;20.20;99.90
52849;DHT22;38714;53.180;5.812;2022-08-30T16:10:40;20.10;99.90
52849;DHT22;38714;53.180;5.812;2022-08-30T16:13:06;20.10;99.90
52849;DHT22;38714;53.180;5.812;2022-08-30T16:15:32;20.10;99.90
52849;DHT22;38714;53.180;5.812;2022-08-30T16:17:57;20.10;99.90
52849;DHT22;38714;53.180;5.812;2022-08-30T16:20:23;20.10;99.90
52849;DHT22;38714;53.180;5.812;2022-08-30T16:22:48;20.10;99.90
52849;DHT22;38714;53.180;5.812;2022-08-30T16:25:14;20.10;99.90
52849;DHT22;38714;53.180;5.812;2022-08-30T16:27:39;20.10;99.90
52849;DHT22;38714;53.180;5.812;2022-08-30T16:30:10;20.10;99.90
52849;DHT22;38714;53.180;5.812;2022-08-30T16:32:36;20.00;99.90
52849;DHT22;38714;53.180;5.812;2022-08-30T16:35:03;20.00;99.90
52849;DHT22;38714;53.180;5.812;2022-08-30T16:37:28;20.00;99.90
52849;DHT22;38714;53.180;5.812;2022-08-30T16:39:54;20.00;99.90
52849;DHT22;38714;53.180;5.812;2022-08-30T16:42:19;20.00;99.90
52849;DHT22;38714;53.180;5.812;2022-08-30T16:44:45;20.00;99.90
52849;DHT22;38714;53.180;5.812;2022-08-30T16:47:13;20.00;99.90
52849;DHT22;38714;53.180;5.812;2022-08-30T16:49:39;20.00;99.90
52849;DHT22;38714;53.180;5.812;2022-08-30T16:52:10;20.00;99.90
52849;DHT22;38714;53.180;5.812;2022-08-30T16:54:35;20.00;99.90